createdAt,value
2018-11-23T00:01:56.721Z,59.20
2018-11-23T00:04:00.426Z,59.53
2018-11-23T00:06:04.143Z,59.67
2018-11-23T00:08:07.996Z,58.07
2018-11-23T00:10:13.924Z,62.70
2018-11-23T00:12:17.607Z,66.50
2018-11-23T00:14:21.479Z,67.77
2018-11-23T00:16:25.248Z,73.13
2018-11-23T00:18:28.981Z,93.17
2018-11-23T00:20:32.778Z,124.93
2018-11-23T00:22:36.491Z,116.97
2018-11-23T00:24:40.218Z,122.27
2018-11-23T00:26:43.998Z,115.07
2018-11-23T00:28:47.885Z,104.47
2018-11-23T00:30:51.572Z,107.27
2018-11-23T00:32:55.409Z,105.90
2018-11-23T00:34:59.109Z,97.33
2018-11-23T00:37:02.844Z,81.80
2018-11-23T00:39:07.091Z,75.60
2018-11-23T00:41:10.784Z,68.50
2018-11-23T00:43:14.607Z,70.50
2018-11-23T00:45:18.380Z,70.47
2018-11-23T00:47:22.085Z,55.83
2018-11-23T00:49:25.828Z,56.67
2018-11-23T00:51:29.617Z,59.57
2018-11-23T00:53:33.426Z,53.20
2018-11-23T00:55:37.143Z,50.03
2018-11-23T00:57:40.883Z,57.63
2018-11-23T00:59:44.596Z,54.20
2018-11-23T01:01:53.620Z,56.50
2018-11-23T01:03:59.565Z,53.87
2018-11-23T01:06:03.299Z,56.27
2018-11-23T01:08:07.028Z,55.77
2018-11-23T01:10:12.715Z,55.63
2018-11-23T01:12:17.240Z,58.93
2018-11-23T01:14:20.992Z,62.93
2018-11-23T01:16:24.689Z,52.10
2018-11-23T01:18:28.477Z,56.33
2018-11-23T01:20:32.225Z,62.80
2018-11-23T01:22:35.929Z,54.10
2018-11-23T01:24:39.693Z,55.50
2018-11-23T01:26:43.576Z,53.83
2018-11-23T01:28:47.365Z,50.33
2018-11-23T01:30:51.021Z,43.63
2018-11-23T01:32:54.815Z,48.03
2018-11-23T01:34:58.544Z,46.80
2018-11-23T01:37:02.252Z,48.67
2018-11-23T01:39:08.639Z,54.67
2018-11-23T01:41:12.353Z,58.57
2018-11-23T01:43:16.036Z,43.90
2018-11-23T01:45:20.090Z,50.50
2018-11-23T01:47:23.830Z,47.87
2018-11-23T01:49:27.566Z,49.20
2018-11-23T01:51:31.303Z,53.67
2018-11-23T01:53:35.045Z,50.13
2018-11-23T01:55:38.803Z,45.80
2018-11-23T01:57:42.956Z,38.30
2018-11-23T01:59:46.824Z,50.13
2018-11-23T02:01:50.488Z,47.97
2018-11-23T02:03:54.535Z,50.83
2018-11-23T02:05:58.718Z,53.07
2018-11-23T02:08:02.574Z,42.90
2018-11-23T02:10:06.856Z,56.80
2018-11-23T02:12:10.638Z,42.33
2018-11-23T02:14:14.363Z,51.20
2018-11-23T02:16:18.133Z,54.77
2018-11-23T02:18:21.835Z,45.80
2018-11-23T02:20:25.634Z,50.17
2018-11-23T02:22:29.454Z,45.20
2018-11-23T02:24:33.193Z,48.50
2018-11-23T02:26:36.961Z,49.93
2018-11-23T02:28:40.630Z,51.23
2018-11-23T02:30:44.803Z,49.20
2018-11-23T02:32:48.475Z,44.30
2018-11-23T02:34:52.169Z,47.70
2018-11-23T02:36:55.811Z,50.00
2018-11-23T02:38:59.523Z,48.27
2018-11-23T02:41:03.771Z,52.70
2018-11-23T02:43:07.413Z,49.30
2018-11-23T02:45:13.956Z,50.90
2018-11-23T02:47:17.655Z,50.80
2018-11-23T02:49:21.841Z,52.70
2018-11-23T02:51:25.930Z,51.13
2018-11-23T02:53:29.582Z,45.97
2018-11-23T02:55:34.119Z,54.77
2018-11-23T02:57:37.866Z,46.13
2018-11-23T02:59:41.609Z,52.70
2018-11-23T03:01:45.499Z,40.37
2018-11-23T03:03:49.150Z,50.10
2018-11-23T03:05:52.820Z,60.27
2018-11-23T03:07:56.533Z,46.00
2018-11-23T03:10:00.209Z,52.33
2018-11-23T03:12:03.949Z,49.00
2018-11-23T03:14:08.516Z,51.90
2018-11-23T03:16:12.204Z,55.83
2018-11-23T03:18:15.963Z,54.27
2018-11-23T03:20:20.949Z,51.03
2018-11-23T03:22:24.651Z,54.07
2018-11-23T03:24:28.318Z,50.20
2018-11-23T03:26:32.009Z,60.27
2018-11-23T03:28:35.657Z,52.93
2018-11-23T03:30:39.396Z,54.80
2018-11-23T03:32:43.233Z,53.90
2018-11-23T03:34:46.933Z,55.07
2018-11-23T03:36:50.653Z,63.90
2018-11-23T03:38:54.371Z,55.30
2018-11-23T03:40:58.857Z,48.17
2018-11-23T03:43:02.551Z,63.10
2018-11-23T03:45:07.774Z,59.53
2018-11-23T03:47:11.520Z,59.57
2018-11-23T03:49:15.223Z,50.03
2018-11-23T03:51:18.966Z,55.30
2018-11-23T03:53:22.631Z,55.73
2018-11-23T03:55:26.354Z,56.97
2018-11-23T03:57:30.043Z,54.63
2018-11-23T03:59:33.755Z,48.13
2018-11-23T04:01:37.471Z,53.97
2018-11-23T04:03:41.158Z,55.20
2018-11-23T04:05:44.835Z,53.20
2018-11-23T04:07:48.604Z,50.25
2018-11-23T04:09:52.406Z,53.30
2018-11-23T04:11:56.174Z,54.83
2018-11-23T04:13:59.880Z,56.48
2018-11-23T04:16:03.558Z,51.13
2018-11-23T04:18:07.331Z,52.13
2018-11-23T04:20:12.845Z,56.48
2018-11-23T04:22:16.550Z,54.40
2018-11-23T04:24:20.293Z,51.50
2018-11-23T04:26:24.859Z,53.52
2018-11-23T04:28:27.819Z,49.23
2018-11-23T04:30:32.107Z,46.80
2018-11-23T04:32:35.890Z,56.83
2018-11-23T04:34:39.614Z,46.90
2018-11-23T04:36:43.311Z,52.45
2018-11-23T04:38:47.046Z,52.37
2018-11-23T04:40:50.792Z,44.60
2018-11-23T04:42:54.519Z,52.40
2018-11-23T04:44:58.241Z,58.00
2018-11-23T04:47:02.208Z,48.37
2018-11-23T04:49:06.255Z,58.40
2018-11-23T04:51:10.118Z,50.20
2018-11-23T04:53:13.906Z,55.00
2018-11-23T04:55:17.720Z,44.33
2018-11-23T04:57:21.440Z,52.13
2018-11-23T04:59:25.143Z,48.35
2018-11-23T05:01:28.854Z,63.53
2018-11-23T05:03:32.597Z,45.47
2018-11-23T05:05:36.322Z,42.80
2018-11-23T05:07:40.105Z,43.50
2018-11-23T05:09:43.846Z,46.07
2018-11-23T05:11:47.583Z,45.50
2018-11-23T05:13:51.528Z,47.60
2018-11-23T05:15:55.202Z,52.87
2018-11-23T05:17:58.980Z,47.00
2018-11-23T05:20:03.324Z,46.20
2018-11-23T05:22:07.178Z,49.93
2018-11-23T05:24:11.176Z,50.03
2018-11-23T05:26:15.021Z,40.10
2018-11-23T05:28:18.888Z,57.50
2018-11-23T05:30:22.942Z,50.33
2018-11-23T05:32:27.550Z,50.80
2018-11-23T05:34:31.328Z,50.05
2018-11-23T05:36:35.197Z,43.28
2018-11-23T05:38:39.037Z,46.02
2018-11-23T05:40:42.960Z,46.58
2018-11-23T05:42:46.842Z,41.68
2018-11-23T05:44:50.725Z,53.38
2018-11-23T05:46:54.493Z,50.15
2018-11-23T05:48:58.329Z,47.25
2018-11-23T05:51:02.133Z,54.65
2018-11-23T05:53:06.033Z,56.60
2018-11-23T05:55:10.231Z,50.90
2018-11-23T05:57:14.392Z,43.53
2018-11-23T05:59:18.792Z,46.70
2018-11-23T06:01:22.706Z,46.83
2018-11-23T06:03:26.989Z,47.58
2018-11-23T06:05:30.812Z,53.05
2018-11-23T06:07:34.601Z,53.30
2018-11-23T06:09:38.504Z,52.08
2018-11-23T06:11:42.355Z,48.02
2018-11-23T06:13:46.151Z,51.88
2018-11-23T06:15:50.536Z,47.08
2018-11-23T06:17:54.352Z,49.93
2018-11-23T06:19:58.167Z,49.03
2018-11-23T06:22:02.754Z,49.07
2018-11-23T06:24:06.808Z,48.03
2018-11-23T06:26:15.244Z,48.80
2018-11-23T06:28:19.015Z,43.90
2018-11-23T06:30:22.852Z,44.27
2018-11-23T06:32:37.692Z,51.60
2018-11-23T06:34:41.464Z,41.83
2018-11-23T06:36:45.247Z,53.50
2018-11-23T06:38:49.061Z,50.87
2018-11-23T06:40:53.127Z,52.33
2018-11-23T06:42:56.875Z,55.10
2018-11-23T06:45:00.735Z,54.35
2018-11-23T06:47:05.159Z,60.40
2018-11-23T06:49:09.053Z,46.55
2018-11-23T06:51:12.823Z,50.40
2018-11-23T06:53:16.713Z,54.33
2018-11-23T06:55:20.502Z,59.75
2018-11-23T06:57:24.284Z,56.37
2018-11-23T06:59:28.168Z,60.38
2018-11-23T07:01:31.993Z,48.90
2018-11-23T07:03:35.871Z,53.13
2018-11-23T07:05:39.706Z,47.57
2018-11-23T07:07:43.515Z,48.63
2018-11-23T07:09:47.323Z,56.43
2018-11-23T07:11:51.162Z,54.70
2018-11-23T07:13:55.027Z,52.43
2018-11-23T07:15:58.841Z,53.23
2018-11-23T07:18:02.663Z,51.85
2018-11-23T07:20:09.237Z,50.67
2018-11-23T07:22:13.024Z,63.53
2018-11-23T07:24:16.969Z,50.17
2018-11-23T07:26:20.822Z,57.80
2018-11-23T07:28:24.629Z,50.90
2018-11-23T07:30:29.060Z,53.10
2018-11-23T07:32:32.894Z,49.50
2018-11-23T07:34:36.692Z,57.13
2018-11-23T07:36:40.551Z,50.12
2018-11-23T07:38:45.355Z,54.73
2018-11-23T07:41:00.238Z,46.33
2018-11-23T07:43:04.045Z,58.13
2018-11-23T07:45:07.978Z,59.00
2018-11-23T07:47:11.793Z,56.20
2018-11-23T07:49:15.647Z,58.33
2018-11-23T07:51:19.441Z,50.47
2018-11-23T07:53:23.244Z,52.97
2018-11-23T07:55:27.003Z,53.43
2018-11-23T07:57:30.718Z,56.53
2018-11-23T07:59:34.896Z,53.40
2018-11-23T08:01:38.717Z,48.17
2018-11-23T08:03:42.476Z,50.27
2018-11-23T08:05:46.458Z,56.13
2018-11-23T08:07:50.289Z,52.57
2018-11-23T08:09:54.091Z,54.40
2018-11-23T08:11:57.994Z,50.07
2018-11-23T08:14:01.819Z,52.00
2018-11-23T08:16:05.841Z,68.93
2018-11-23T08:18:09.633Z,70.73
2018-11-23T08:20:14.972Z,51.40
2018-11-23T08:22:19.679Z,51.00
2018-11-23T08:24:23.495Z,44.37
2018-11-23T08:26:27.315Z,53.53
2018-11-23T08:28:31.123Z,54.87
2018-11-23T08:30:35.014Z,52.27
2018-11-23T08:32:38.866Z,41.43
2018-11-23T08:34:42.745Z,43.53
2018-11-23T08:36:46.562Z,46.03
2018-11-23T08:38:50.306Z,46.13
2018-11-23T08:40:54.187Z,53.23
2018-11-23T08:42:57.988Z,50.23
2018-11-23T08:45:01.716Z,45.67
2018-11-23T08:47:05.880Z,45.63
2018-11-23T08:49:09.684Z,48.93
2018-11-23T08:51:13.854Z,43.10
2018-11-23T08:53:17.638Z,42.80
2018-11-23T08:55:21.738Z,44.27
2018-11-23T08:57:25.543Z,44.03
2018-11-23T08:59:29.316Z,43.73
2018-11-23T09:01:33.200Z,42.83
2018-11-23T09:03:37.123Z,47.87
2018-11-23T09:05:40.995Z,42.70
2018-11-23T09:07:45.683Z,47.20
2018-11-23T09:09:49.484Z,42.00
2018-11-23T09:11:53.327Z,43.53
2018-11-23T09:13:57.074Z,46.03
2018-11-23T09:16:00.960Z,43.60
2018-11-23T09:18:05.044Z,45.90
2018-11-23T09:20:10.442Z,44.43
2018-11-23T09:22:14.247Z,47.03
2018-11-23T09:24:18.058Z,47.33
2018-11-23T09:26:22.040Z,37.73
2018-11-23T09:28:26.229Z,42.83
2018-11-23T09:30:30.076Z,40.90
2018-11-23T09:32:34.055Z,40.13
2018-11-23T09:34:37.844Z,35.97
2018-11-23T09:36:41.692Z,43.70
2018-11-23T09:38:45.524Z,41.40
2018-11-23T09:40:49.362Z,48.30
2018-11-23T09:42:53.510Z,34.33
2018-11-23T09:44:57.585Z,37.63
2018-11-23T09:47:01.476Z,34.80
2018-11-23T09:49:05.406Z,40.97
2018-11-23T09:51:09.235Z,33.50
2018-11-23T09:53:13.825Z,34.83
2018-11-23T09:55:18.234Z,44.63
2018-11-23T09:57:22.138Z,38.63
2018-11-23T09:59:25.933Z,33.00
2018-11-23T10:01:29.793Z,32.27
2018-11-23T10:03:33.631Z,27.40
2018-11-23T10:05:37.413Z,28.40
2018-11-23T10:07:41.837Z,28.60
2018-11-23T10:09:45.644Z,27.20
2018-11-23T10:11:50.059Z,26.03
2018-11-23T10:13:53.905Z,27.87
2018-11-23T10:15:57.813Z,23.00
2018-11-23T10:18:02.192Z,27.70
2018-11-23T10:20:08.186Z,29.40
2018-11-23T10:22:12.082Z,25.80
2018-11-23T10:24:16.089Z,28.17
2018-11-23T10:26:20.012Z,29.70
2018-11-23T10:28:23.870Z,25.17
2018-11-23T10:30:29.407Z,26.80
2018-11-23T10:32:33.332Z,25.90
2018-11-23T10:34:37.151Z,29.80
2018-11-23T10:36:40.969Z,34.50
2018-11-23T10:38:44.843Z,28.30
2018-11-23T10:40:48.674Z,26.77
2018-11-23T10:42:52.648Z,26.10
2018-11-23T10:44:56.514Z,24.60
2018-11-23T10:47:00.382Z,24.63
2018-11-23T10:49:04.628Z,28.20
2018-11-23T10:51:08.512Z,27.10
2018-11-23T10:53:14.420Z,33.33
2018-11-23T10:55:21.065Z,33.70
2018-11-23T10:57:24.956Z,28.70
2018-11-23T10:59:28.823Z,29.43
2018-11-23T11:01:37.679Z,26.43
2018-11-23T11:03:46.680Z,31.00
2018-11-23T11:05:55.780Z,31.10
2018-11-23T11:08:01.327Z,24.40
2018-11-23T11:10:05.866Z,23.67
2018-11-23T11:12:09.653Z,27.93
2018-11-23T11:14:13.437Z,31.33
2018-11-23T11:16:17.689Z,27.83
2018-11-23T11:18:21.555Z,28.47
2018-11-23T11:20:25.369Z,33.23
2018-11-23T11:22:29.115Z,27.47
2018-11-23T11:24:32.937Z,34.43
2018-11-23T11:26:43.390Z,38.73
2018-11-23T11:28:47.156Z,41.43
2018-11-23T11:30:50.961Z,36.70
2018-11-23T11:32:54.829Z,34.03
2018-11-23T11:34:58.677Z,36.63
2018-11-23T11:37:02.983Z,44.20
2018-11-23T11:39:10.059Z,39.37
2018-11-23T11:41:13.882Z,35.43
2018-11-23T11:43:17.656Z,32.53
2018-11-23T11:45:21.435Z,34.00
2018-11-23T11:47:25.225Z,34.43
2018-11-23T11:49:29.079Z,36.30
2018-11-23T11:51:32.846Z,38.77
2018-11-23T11:53:36.676Z,33.57
2018-11-23T11:55:40.798Z,34.50
2018-11-23T11:57:45.367Z,37.70
2018-11-23T11:59:49.170Z,32.13
2018-11-23T12:01:52.955Z,38.30
2018-11-23T12:03:58.135Z,36.73
2018-11-23T12:06:01.926Z,35.70
2018-11-23T12:08:06.578Z,36.90
2018-11-23T12:10:16.708Z,40.40
2018-11-23T12:12:20.550Z,36.83
2018-11-23T12:14:24.421Z,35.97
2018-11-23T12:16:28.194Z,36.63
2018-11-23T12:18:32.079Z,37.17
2018-11-23T12:20:35.943Z,32.80
2018-11-23T12:22:39.857Z,37.90
2018-11-23T12:24:43.669Z,38.23
2018-11-23T12:26:47.493Z,36.50
2018-11-23T12:28:51.343Z,38.63
2018-11-23T12:30:55.202Z,34.00
2018-11-23T12:32:58.990Z,40.20
2018-11-23T12:35:02.860Z,38.70
2018-11-23T12:37:07.017Z,41.90
2018-11-23T12:39:10.865Z,39.37
2018-11-23T12:41:14.811Z,39.50
2018-11-23T12:43:18.679Z,40.47
2018-11-23T12:45:23.468Z,38.90
2018-11-23T12:47:27.214Z,42.30
2018-11-23T12:49:31.103Z,41.77
2018-11-23T12:51:34.979Z,39.63
2018-11-23T12:53:38.739Z,44.17
2018-11-23T12:55:42.537Z,45.33
2018-11-23T12:57:46.399Z,43.63
2018-11-23T12:59:50.241Z,43.03
2018-11-23T13:01:54.097Z,44.87
2018-11-23T13:03:57.842Z,44.87
2018-11-23T13:06:01.648Z,44.93
2018-11-23T13:08:06.485Z,42.50
2018-11-23T13:10:10.311Z,44.07
2018-11-23T13:12:14.110Z,45.77
2018-11-23T13:14:17.917Z,49.80
2018-11-23T13:16:21.715Z,47.07
2018-11-23T13:18:28.400Z,45.40
2018-11-23T13:20:32.298Z,44.20
2018-11-23T13:22:36.220Z,44.70
2018-11-23T13:24:40.132Z,44.07
2018-11-23T13:26:44.193Z,42.13
2018-11-23T13:28:48.405Z,42.60
2018-11-23T13:30:52.303Z,52.43
2018-11-23T13:32:56.233Z,41.77
2018-11-23T13:35:00.620Z,46.30
2018-11-23T13:37:04.851Z,42.80
2018-11-23T13:39:08.747Z,40.67
2018-11-23T13:41:12.878Z,43.20
2018-11-23T13:43:16.823Z,46.00
2018-11-23T13:45:22.137Z,57.10
2018-11-23T13:47:26.050Z,49.93
2018-11-23T13:49:29.891Z,49.60
2018-11-23T13:51:34.958Z,44.37
2018-11-23T13:53:39.829Z,44.13
2018-11-23T13:55:43.697Z,51.00
2018-11-23T13:57:47.565Z,51.50
2018-11-23T13:59:51.454Z,52.13
2018-11-23T14:01:55.617Z,55.80
2018-11-23T14:03:59.517Z,51.90
2018-11-23T14:06:03.372Z,44.27
2018-11-23T14:08:07.295Z,53.47
2018-11-23T14:10:13.309Z,47.53
2018-11-23T14:12:17.086Z,43.30
2018-11-23T14:14:20.939Z,45.37
2018-11-23T14:16:24.693Z,47.67
2018-11-23T14:18:28.512Z,52.80
2018-11-23T14:20:32.511Z,45.97
2018-11-23T14:22:36.630Z,51.43
2018-11-23T14:24:40.367Z,49.70
2018-11-23T14:26:44.140Z,46.27
2018-11-23T14:28:48.010Z,46.67
2018-11-23T14:30:51.845Z,49.00
2018-11-23T14:32:55.751Z,44.83
2018-11-23T14:34:59.529Z,44.80
2018-11-23T14:37:03.331Z,49.43
2018-11-23T14:39:08.795Z,44.50
2018-11-23T14:41:13.621Z,49.83
2018-11-23T14:43:17.345Z,48.93
2018-11-23T14:45:25.604Z,50.67
2018-11-23T14:47:29.365Z,41.90
2018-11-23T14:49:33.945Z,45.50
2018-11-23T14:51:37.766Z,43.40
2018-11-23T14:53:41.525Z,47.20
2018-11-23T14:55:45.411Z,44.00
2018-11-23T14:57:49.291Z,42.37
2018-11-23T14:59:53.171Z,40.03
2018-11-23T15:01:56.964Z,43.83
2018-11-23T15:04:00.736Z,45.57
2018-11-23T15:06:04.591Z,38.87
2018-11-23T15:08:08.756Z,37.27
2018-11-23T15:10:14.574Z,41.80
2018-11-23T15:12:18.409Z,39.27
2018-11-23T15:14:22.170Z,43.17
2018-11-23T15:16:25.974Z,48.17
2018-11-23T15:18:29.793Z,43.27
2018-11-23T15:20:43.250Z,45.37
2018-11-23T15:22:48.454Z,45.57
2018-11-23T15:24:52.186Z,46.60
2018-11-23T15:26:56.156Z,48.43
2018-11-23T15:28:59.983Z,52.03
2018-11-23T15:31:03.814Z,43.77
2018-11-23T15:33:08.475Z,49.67
2018-11-23T15:35:12.572Z,53.33
2018-11-23T15:37:16.373Z,48.90
2018-11-23T15:39:20.157Z,44.43
2018-11-23T15:41:23.956Z,48.60
2018-11-23T15:43:27.958Z,50.00
2018-11-23T15:45:32.750Z,57.60
2018-11-23T15:47:36.770Z,54.00
2018-11-23T15:49:40.594Z,60.23
2018-11-23T15:51:44.365Z,52.00
2018-11-23T15:53:48.197Z,53.20
2018-11-23T15:55:51.983Z,57.30
2018-11-23T15:57:57.361Z,56.47
2018-11-23T16:00:01.139Z,50.17
2018-11-23T16:02:05.448Z,55.67
2018-11-23T16:04:09.233Z,57.43
2018-11-23T16:06:13.071Z,51.20
2018-11-23T16:08:18.515Z,53.93
2018-11-23T16:10:24.588Z,65.87
2018-11-23T16:12:28.470Z,57.90
2018-11-23T16:14:32.289Z,56.17
2018-11-23T16:16:36.536Z,61.43
2018-11-23T16:18:40.291Z,57.60
2018-11-23T16:20:45.588Z,59.37
2018-11-23T16:22:51.760Z,62.27
2018-11-23T16:24:55.793Z,56.60
2018-11-23T16:27:00.088Z,58.30
2018-11-23T16:29:04.399Z,53.47
2018-11-23T16:31:08.157Z,57.10
2018-11-23T16:33:17.626Z,58.00
2018-11-23T16:35:23.499Z,62.90
2018-11-23T16:37:29.044Z,53.20
2018-11-23T16:39:32.948Z,59.40
2018-11-23T16:41:37.008Z,60.53
2018-11-23T16:43:41.229Z,59.60
2018-11-23T16:45:45.569Z,75.87
2018-11-23T16:47:49.821Z,56.47
2018-11-23T16:49:53.816Z,63.63
2018-11-23T16:51:57.608Z,59.27
2018-11-23T16:54:01.426Z,53.20
2018-11-23T16:56:05.430Z,53.23
2018-11-23T16:58:10.787Z,54.57
2018-11-23T17:00:22.215Z,65.47
2018-11-23T17:02:26.232Z,56.10
2018-11-23T17:04:30.088Z,58.07
2018-11-23T17:06:33.936Z,52.47
2018-11-23T17:08:39.929Z,56.23
2018-11-23T17:10:41.769Z,56.30
2018-11-23T17:12:45.789Z,57.13
2018-11-23T17:14:49.598Z,52.00
2018-11-23T17:16:53.421Z,54.40
2018-11-23T17:18:57.229Z,51.60
2018-11-23T17:21:01.048Z,57.27
2018-11-23T17:23:06.057Z,52.27
2018-11-23T17:25:11.585Z,52.03
2018-11-23T17:27:15.438Z,44.97
2018-11-23T17:29:23.235Z,46.07
2018-11-23T17:31:23.069Z,48.50
2018-11-23T17:33:27.226Z,46.60
2018-11-23T17:35:31.165Z,53.13
2018-11-23T17:37:35.163Z,61.77
2018-11-23T17:39:38.961Z,53.80
2018-11-23T17:41:42.787Z,51.43
2018-11-23T17:43:46.693Z,50.67
2018-11-23T17:45:50.510Z,50.93
2018-11-23T17:47:54.812Z,51.33
2018-11-23T17:49:59.094Z,47.40
2018-11-23T17:52:02.935Z,46.83
2018-11-23T17:54:06.795Z,44.60
2018-11-23T17:56:10.571Z,44.63
2018-11-23T17:58:14.410Z,46.93
2018-11-23T18:00:21.345Z,44.57
2018-11-23T18:02:27.243Z,43.67
2018-11-23T18:04:31.038Z,43.17
2018-11-23T18:06:34.840Z,41.87
2018-11-23T18:08:39.056Z,34.40
2018-11-23T18:10:42.396Z,45.87
2018-11-23T18:12:46.508Z,38.97
2018-11-23T18:14:51.304Z,42.30
2018-11-23T18:16:55.250Z,39.70
2018-11-23T18:18:59.091Z,44.13
2018-11-23T18:21:02.920Z,44.60
2018-11-23T18:23:06.996Z,42.03
2018-11-23T18:25:13.502Z,40.13
2018-11-23T18:27:17.268Z,37.70
2018-11-23T18:29:21.100Z,36.40
2018-11-23T18:31:24.832Z,33.87
2018-11-23T18:33:28.586Z,41.13
2018-11-23T18:35:32.361Z,35.80
2018-11-23T18:37:36.146Z,37.00
2018-11-23T18:39:39.894Z,40.17
2018-11-23T18:41:43.708Z,31.90
2018-11-23T18:43:47.491Z,36.17
2018-11-23T18:45:51.314Z,36.43
2018-11-23T18:47:55.148Z,44.13
2018-11-23T18:49:58.941Z,43.63
2018-11-23T18:52:02.716Z,39.77
2018-11-23T18:54:06.580Z,46.10
2018-11-23T18:56:10.360Z,57.23
2018-11-23T18:58:14.130Z,61.33
2018-11-23T19:00:17.959Z,73.63
2018-11-23T19:02:21.758Z,59.60
2018-11-23T19:04:32.210Z,56.57
2018-11-23T19:06:35.943Z,51.20
2018-11-23T19:08:39.697Z,67.70
2018-11-23T19:10:43.498Z,63.77
2018-11-23T19:12:47.304Z,42.20
2018-11-23T19:14:51.582Z,42.53
2018-11-23T19:16:55.490Z,40.50
2018-11-23T19:18:59.250Z,34.77
2018-11-23T19:21:03.104Z,36.70
2018-11-23T19:23:06.899Z,45.03
2018-11-23T19:25:10.699Z,44.70
2018-11-23T19:27:14.459Z,56.07
2018-11-23T19:29:18.266Z,81.63
2018-11-23T19:31:22.138Z,69.70
2018-11-23T19:33:25.898Z,42.60
2018-11-23T19:35:29.683Z,44.00
2018-11-23T19:37:33.460Z,36.57
2018-11-23T19:39:37.321Z,34.97
2018-11-23T19:41:41.133Z,40.53
2018-11-23T19:43:44.933Z,40.77
2018-11-23T19:45:48.749Z,35.73
2018-11-23T19:47:52.524Z,41.10
2018-11-23T19:49:56.285Z,38.77
2018-11-23T19:52:00.046Z,39.70
2018-11-23T19:54:03.843Z,34.90
2018-11-23T19:56:07.642Z,31.30
2018-11-23T19:58:11.782Z,38.03
2018-11-23T20:00:20.151Z,34.60
2018-11-23T20:02:23.906Z,36.43
2018-11-23T20:04:27.685Z,39.40
2018-11-23T20:06:31.647Z,38.50
2018-11-23T20:08:35.678Z,39.77
2018-11-23T20:10:39.598Z,38.20
2018-11-23T20:12:44.291Z,36.93
2018-11-23T20:14:48.204Z,38.23
2018-11-23T20:16:56.186Z,39.10
2018-11-23T20:18:59.991Z,38.93
2018-11-23T20:21:03.963Z,34.60
2018-11-23T20:23:08.774Z,36.87
2018-11-23T20:25:15.782Z,39.70
2018-11-23T20:27:19.606Z,34.83
2018-11-23T20:29:23.366Z,38.07
2018-11-23T20:31:27.214Z,33.83
2018-11-23T20:33:31.169Z,32.43
2018-11-23T20:35:35.255Z,39.77
2018-11-23T20:37:39.485Z,30.07
2018-11-23T20:39:43.341Z,35.43
2018-11-23T20:41:47.247Z,39.57
2018-11-23T20:43:51.003Z,36.77
2018-11-23T20:45:54.799Z,37.57
2018-11-23T20:47:58.636Z,38.50
2018-11-23T20:50:02.465Z,39.40
2018-11-23T20:52:06.414Z,33.20
2018-11-23T20:54:10.477Z,34.70
2018-11-23T20:56:15.853Z,34.13
2018-11-23T20:58:22.579Z,32.30
2018-11-23T21:00:27.563Z,32.27
2018-11-23T21:02:31.354Z,32.23
2018-11-23T21:04:35.263Z,32.97
2018-11-23T21:06:39.190Z,35.33
2018-11-23T21:08:43.253Z,35.20
2018-11-23T21:10:47.312Z,36.00
2018-11-23T21:12:51.784Z,35.63
2018-11-23T21:14:56.166Z,40.77
2018-11-23T21:17:00.340Z,39.60
2018-11-23T21:19:04.687Z,40.80
2018-11-23T21:21:08.709Z,36.93
2018-11-23T21:23:12.571Z,40.40
2018-11-23T21:25:16.446Z,44.80
2018-11-23T21:27:20.297Z,37.90
2018-11-23T21:29:25.554Z,39.77
2018-11-23T21:31:30.112Z,37.17
2018-11-23T21:33:34.032Z,43.57
2018-11-23T21:35:38.926Z,39.43
2018-11-23T21:37:42.913Z,48.40
2018-11-23T21:39:46.703Z,44.57
2018-11-23T21:41:50.536Z,37.70
2018-11-23T21:43:54.447Z,45.73
2018-11-23T21:45:58.684Z,46.23
2018-11-23T21:48:02.901Z,41.40
2018-11-23T21:50:09.633Z,45.77
2018-11-23T21:52:13.405Z,47.13
2018-11-23T21:54:18.057Z,41.37
2018-11-23T21:56:22.403Z,42.60
2018-11-23T21:58:26.615Z,50.27
2018-11-23T22:00:30.743Z,50.63
2018-11-23T22:02:34.569Z,41.00
2018-11-23T22:04:38.427Z,40.67
2018-11-23T22:06:42.265Z,44.57
2018-11-23T22:08:46.061Z,43.80
2018-11-23T22:10:49.857Z,49.57
2018-11-23T22:12:53.728Z,47.27
2018-11-23T22:14:57.506Z,44.50
2018-11-23T22:17:01.292Z,47.67
2018-11-23T22:19:05.173Z,54.27
2018-11-23T22:21:08.983Z,49.57
2018-11-23T22:23:12.859Z,50.40
2018-11-23T22:25:17.680Z,50.53
2018-11-23T22:27:21.564Z,49.47
2018-11-23T22:29:25.332Z,64.00
2018-11-23T22:31:29.192Z,61.17
2018-11-23T22:33:32.966Z,55.50
2018-11-23T22:35:36.744Z,50.17
2018-11-23T22:37:40.624Z,50.27
2018-11-23T22:39:44.372Z,46.07
2018-11-23T22:41:48.080Z,54.07
2018-11-23T22:43:52.165Z,56.73
2018-11-23T22:45:56.819Z,50.43
2018-11-23T22:48:00.610Z,48.00
2018-11-23T22:50:04.657Z,47.43
2018-11-23T22:52:08.516Z,51.57
2018-11-23T22:54:12.307Z,49.60
2018-11-23T22:56:16.121Z,47.67
2018-11-23T22:58:19.952Z,52.60
2018-11-23T23:00:31.393Z,55.07
2018-11-23T23:02:35.109Z,47.47
2018-11-23T23:04:38.887Z,52.30
2018-11-23T23:06:42.622Z,65.73
2018-11-23T23:08:46.602Z,63.87
2018-11-23T23:10:50.478Z,58.30
2018-11-23T23:12:54.330Z,55.20
2018-11-23T23:14:58.110Z,56.20
2018-11-23T23:17:02.021Z,62.30
2018-11-23T23:19:05.989Z,59.63
2018-11-23T23:21:09.769Z,60.97
2018-11-23T23:23:13.603Z,66.13
2018-11-23T23:25:17.397Z,59.67
2018-11-23T23:27:21.213Z,60.70
2018-11-23T23:29:24.912Z,51.47
2018-11-23T23:31:28.658Z,56.70
2018-11-23T23:33:32.482Z,52.37
2018-11-23T23:35:36.258Z,54.13
2018-11-23T23:37:40.455Z,53.57
2018-11-23T23:39:44.181Z,62.73
2018-11-23T23:41:48.029Z,59.53
2018-11-23T23:43:51.909Z,61.30
2018-11-23T23:45:55.741Z,64.03
2018-11-23T23:47:59.547Z,59.33
2018-11-23T23:50:03.372Z,69.60
2018-11-23T23:52:07.200Z,58.77
2018-11-23T23:54:11.015Z,64.57
2018-11-23T23:56:14.810Z,67.43
2018-11-23T23:58:18.619Z,71.03
